sensor_id;sensor_type;location;lat;lon;timestamp;P1;durP1;ratioP1;P2;durP2;ratioP2
76475;SDS011;65308;50.078;14.854;2024-01-11T00:01:59;22.75;;;10.38;;
76475;SDS011;65308;50.078;14.854;2024-01-11T00:04:26;23.77;;;10.25;;
76475;SDS011;65308;50.078;14.854;2024-01-11T00:06:54;21.52;;;10.07;;
76475;SDS011;65308;50.078;14.854;2024-01-11T00:09:21;26.58;;;10.68;;
76475;SDS011;65308;50.078;14.854;2024-01-11T00:11:48;33.15;;;11.25;;
76475;SDS011;65308;50.078;14.854;2024-01-11T00:14:15;27.40;;;11.93;;
76475;SDS011;65308;50.078;14.854;2024-01-11T00:16:42;20.23;;;8.68;;
76475;SDS011;65308;50.078;14.854;2024-01-11T00:19:08;26.02;;;9.73;;
76475;SDS011;65308;50.078;14.854;2024-01-11T00:21:35;27.17;;;11.45;;
76475;SDS011;65308;50.078;14.854;2024-01-11T00:24:03;26.02;;;10.55;;
76475;SDS011;65308;50.078;14.854;2024-01-11T00:26:30;29.30;;;11.75;;
76475;SDS011;65308;50.078;14.854;2024-01-11T00:28:58;25.20;;;10.45;;
76475;SDS011;65308;50.078;14.854;2024-01-11T00:31:24;27.33;;;10.57;;
76475;SDS011;65308;50.078;14.854;2024-01-11T00:33:51;32.78;;;11.75;;
76475;SDS011;65308;50.078;14.854;2024-01-11T00:36:18;22.33;;;9.98;;
76475;SDS011;65308;50.078;14.854;2024-01-11T00:38:45;30.38;;;9.88;;
76475;SDS011;65308;50.078;14.854;2024-01-11T00:41:13;24.80;;;9.80;;
76475;SDS011;65308;50.078;14.854;2024-01-11T00:43:40;27.38;;;11.20;;
76475;SDS011;65308;50.078;14.854;2024-01-11T00:46:07;31.38;;;10.48;;
76475;SDS011;65308;50.078;14.854;2024-01-11T00:48:33;27.10;;;10.90;;
76475;SDS011;65308;50.078;14.854;2024-01-11T00:51:00;28.02;;;12.75;;
76475;SDS011;65308;50.078;14.854;2024-01-11T00:53:27;29.48;;;12.02;;
76475;SDS011;65308;50.078;14.854;2024-01-11T00:55:55;24.25;;;10.43;;
76475;SDS011;65308;50.078;14.854;2024-01-11T00:58:23;29.20;;;11.63;;
76475;SDS011;65308;50.078;14.854;2024-01-11T01:00:50;26.95;;;9.30;;
76475;SDS011;65308;50.078;14.854;2024-01-11T01:03:17;23.17;;;8.63;;
76475;SDS011;65308;50.078;14.854;2024-01-11T01:05:44;22.08;;;9.20;;
76475;SDS011;65308;50.078;14.854;2024-01-11T01:08:11;24.08;;;10.13;;
76475;SDS011;65308;50.078;14.854;2024-01-11T01:10:37;19.92;;;9.25;;
76475;SDS011;65308;50.078;14.854;2024-01-11T01:13:05;23.25;;;10.10;;
76475;SDS011;65308;50.078;14.854;2024-01-11T01:15:33;27.23;;;10.02;;
76475;SDS011;65308;50.078;14.854;2024-01-11T01:17:59;25.13;;;9.35;;
76475;SDS011;65308;50.078;14.854;2024-01-11T01:20:26;31.05;;;11.32;;
76475;SDS011;65308;50.078;14.854;2024-01-11T01:22:53;24.77;;;10.40;;
76475;SDS011;65308;50.078;14.854;2024-01-11T01:25:20;30.85;;;10.75;;
76475;SDS011;65308;50.078;14.854;2024-01-11T01:27:47;24.85;;;10.32;;
76475;SDS011;65308;50.078;14.854;2024-01-11T01:30:13;28.05;;;10.07;;
76475;SDS011;65308;50.078;14.854;2024-01-11T01:32:41;28.90;;;11.23;;
76475;SDS011;65308;50.078;14.854;2024-01-11T01:35:08;30.70;;;12.65;;
76475;SDS011;65308;50.078;14.854;2024-01-11T01:37:35;28.30;;;11.85;;
76475;SDS011;65308;50.078;14.854;2024-01-11T01:40:02;28.92;;;11.63;;
76475;SDS011;65308;50.078;14.854;2024-01-11T01:42:29;29.27;;;10.30;;
76475;SDS011;65308;50.078;14.854;2024-01-11T01:44:55;26.42;;;11.32;;
76475;SDS011;65308;50.078;14.854;2024-01-11T01:47:22;27.83;;;12.13;;
76475;SDS011;65308;50.078;14.854;2024-01-11T01:49:50;31.92;;;12.90;;
76475;SDS011;65308;50.078;14.854;2024-01-11T01:52:18;28.60;;;12.25;;
76475;SDS011;65308;50.078;14.854;2024-01-11T01:54:45;27.67;;;10.48;;
76475;SDS011;65308;50.078;14.854;2024-01-11T01:57:13;29.02;;;10.82;;
76475;SDS011;65308;50.078;14.854;2024-01-11T01:59:41;19.48;;;9.65;;
76475;SDS011;65308;50.078;14.854;2024-01-11T02:02:10;29.77;;;13.02;;
76475;SDS011;65308;50.078;14.854;2024-01-11T02:04:38;29.48;;;11.52;;
76475;SDS011;65308;50.078;14.854;2024-01-11T02:07:06;35.22;;;11.95;;
76475;SDS011;65308;50.078;14.854;2024-01-11T02:09:33;32.67;;;12.40;;
76475;SDS011;65308;50.078;14.854;2024-01-11T02:11:59;25.67;;;10.90;;
76475;SDS011;65308;50.078;14.854;2024-01-11T02:14:27;25.40;;;11.20;;
76475;SDS011;65308;50.078;14.854;2024-01-11T02:16:54;26.90;;;12.45;;
76475;SDS011;65308;50.078;14.854;2024-01-11T02:19:20;21.67;;;10.30;;
76475;SDS011;65308;50.078;14.854;2024-01-11T02:21:48;22.65;;;11.00;;
76475;SDS011;65308;50.078;14.854;2024-01-11T02:24:17;25.75;;;10.63;;
76475;SDS011;65308;50.078;14.854;2024-01-11T02:26:57;21.85;;;10.43;;
76475;SDS011;65308;50.078;14.854;2024-01-11T02:29:25;27.52;;;10.88;;
76475;SDS011;65308;50.078;14.854;2024-01-11T02:31:52;34.75;;;11.13;;
76475;SDS011;65308;50.078;14.854;2024-01-11T02:34:18;29.58;;;11.20;;
76475;SDS011;65308;50.078;14.854;2024-01-11T02:36:45;24.00;;;10.88;;
76475;SDS011;65308;50.078;14.854;2024-01-11T02:39:13;26.60;;;10.70;;
76475;SDS011;65308;50.078;14.854;2024-01-11T02:41:43;31.50;;;11.23;;
76475;SDS011;65308;50.078;14.854;2024-01-11T02:44:10;30.92;;;11.50;;
76475;SDS011;65308;50.078;14.854;2024-01-11T02:46:37;31.23;;;10.88;;
76475;SDS011;65308;50.078;14.854;2024-01-11T02:49:03;30.20;;;10.90;;
76475;SDS011;65308;50.078;14.854;2024-01-11T02:51:30;25.15;;;11.60;;
76475;SDS011;65308;50.078;14.854;2024-01-11T02:53:56;26.98;;;11.50;;
76475;SDS011;65308;50.078;14.854;2024-01-11T02:56:23;30.83;;;11.35;;
76475;SDS011;65308;50.078;14.854;2024-01-11T02:58:51;26.80;;;11.25;;
76475;SDS011;65308;50.078;14.854;2024-01-11T03:01:18;32.47;;;10.60;;
76475;SDS011;65308;50.078;14.854;2024-01-11T03:03:44;22.63;;;10.30;;
76475;SDS011;65308;50.078;14.854;2024-01-11T03:06:11;27.13;;;11.07;;
76475;SDS011;65308;50.078;14.854;2024-01-11T03:08:37;32.92;;;11.90;;
76475;SDS011;65308;50.078;14.854;2024-01-11T03:11:04;31.42;;;12.05;;
76475;SDS011;65308;50.078;14.854;2024-01-11T03:13:31;23.20;;;11.27;;
76475;SDS011;65308;50.078;14.854;2024-01-11T03:15:59;26.70;;;11.13;;
76475;SDS011;65308;50.078;14.854;2024-01-11T03:18:25;26.08;;;11.43;;
76475;SDS011;65308;50.078;14.854;2024-01-11T03:20:52;23.13;;;10.98;;
76475;SDS011;65308;50.078;14.854;2024-01-11T03:23:18;24.30;;;11.13;;
76475;SDS011;65308;50.078;14.854;2024-01-11T03:25:45;28.65;;;11.48;;
76475;SDS011;65308;50.078;14.854;2024-01-11T03:28:12;27.27;;;11.38;;
76475;SDS011;65308;50.078;14.854;2024-01-11T03:30:38;26.52;;;11.52;;
76475;SDS011;65308;50.078;14.854;2024-01-11T03:33:06;32.53;;;11.65;;
76475;SDS011;65308;50.078;14.854;2024-01-11T03:35:33;21.70;;;10.43;;
76475;SDS011;65308;50.078;14.854;2024-01-11T03:37:59;25.05;;;10.63;;
76475;SDS011;65308;50.078;14.854;2024-01-11T03:40:26;30.70;;;12.52;;
76475;SDS011;65308;50.078;14.854;2024-01-11T03:42:53;30.35;;;11.73;;
76475;SDS011;65308;50.078;14.854;2024-01-11T03:45:19;24.13;;;10.55;;
76475;SDS011;65308;50.078;14.854;2024-01-11T03:47:46;22.77;;;9.82;;
76475;SDS011;65308;50.078;14.854;2024-01-11T03:50:14;24.48;;;10.63;;
76475;SDS011;65308;50.078;14.854;2024-01-11T03:52:41;24.88;;;10.48;;
76475;SDS011;65308;50.078;14.854;2024-01-11T03:55:07;21.73;;;9.85;;
76475;SDS011;65308;50.078;14.854;2024-01-11T03:57:34;30.50;;;11.15;;
76475;SDS011;65308;50.078;14.854;2024-01-11T04:00:01;21.98;;;10.35;;
76475;SDS011;65308;50.078;14.854;2024-01-11T04:02:28;24.48;;;10.30;;
76475;SDS011;65308;50.078;14.854;2024-01-11T04:04:55;21.45;;;9.40;;
76475;SDS011;65308;50.078;14.854;2024-01-11T04:07:23;20.83;;;9.32;;
76475;SDS011;65308;50.078;14.854;2024-01-11T04:09:50;31.30;;;10.18;;
76475;SDS011;65308;50.078;14.854;2024-01-11T04:12:16;26.52;;;11.23;;
76475;SDS011;65308;50.078;14.854;2024-01-11T04:14:43;26.88;;;9.50;;
76475;SDS011;65308;50.078;14.854;2024-01-11T04:17:10;21.52;;;9.55;;
76475;SDS011;65308;50.078;14.854;2024-01-11T04:19:36;25.55;;;10.23;;
76475;SDS011;65308;50.078;14.854;2024-01-11T04:22:03;24.95;;;9.32;;
76475;SDS011;65308;50.078;14.854;2024-01-11T04:24:31;24.95;;;9.55;;
76475;SDS011;65308;50.078;14.854;2024-01-11T04:26:58;18.02;;;8.23;;
76475;SDS011;65308;50.078;14.854;2024-01-11T04:29:24;20.08;;;8.70;;
76475;SDS011;65308;50.078;14.854;2024-01-11T04:31:51;25.80;;;9.02;;
76475;SDS011;65308;50.078;14.854;2024-01-11T04:34:18;23.20;;;8.52;;
76475;SDS011;65308;50.078;14.854;2024-01-11T04:36:44;24.33;;;9.57;;
76475;SDS011;65308;50.078;14.854;2024-01-11T04:39:11;21.38;;;8.60;;
76475;SDS011;65308;50.078;14.854;2024-01-11T04:41:38;18.65;;;8.82;;
76475;SDS011;65308;50.078;14.854;2024-01-11T04:44:05;19.33;;;7.80;;
76475;SDS011;65308;50.078;14.854;2024-01-11T04:46:32;12.35;;;5.72;;
76475;SDS011;65308;50.078;14.854;2024-01-11T04:48:59;18.05;;;6.97;;
76475;SDS011;65308;50.078;14.854;2024-01-11T04:51:25;13.23;;;5.35;;
76475;SDS011;65308;50.078;14.854;2024-01-11T04:53:52;15.75;;;5.28;;
76475;SDS011;65308;50.078;14.854;2024-01-11T04:56:18;12.93;;;5.93;;
76475;SDS011;65308;50.078;14.854;2024-01-11T04:58:47;14.02;;;6.05;;
76475;SDS011;65308;50.078;14.854;2024-01-11T05:01:14;14.55;;;6.70;;
76475;SDS011;65308;50.078;14.854;2024-01-11T05:03:41;12.73;;;5.32;;
76475;SDS011;65308;50.078;14.854;2024-01-11T05:06:08;18.50;;;5.75;;
76475;SDS011;65308;50.078;14.854;2024-01-11T05:08:40;11.68;;;5.68;;
76475;SDS011;65308;50.078;14.854;2024-01-11T05:11:07;16.00;;;7.32;;
76475;SDS011;65308;50.078;14.854;2024-01-11T05:13:33;21.20;;;8.50;;
76475;SDS011;65308;50.078;14.854;2024-01-11T05:16:01;18.23;;;7.32;;
76475;SDS011;65308;50.078;14.854;2024-01-11T05:18:28;15.05;;;6.82;;
76475;SDS011;65308;50.078;14.854;2024-01-11T05:20:55;13.73;;;6.95;;
76475;SDS011;65308;50.078;14.854;2024-01-11T05:23:22;18.40;;;7.63;;
76475;SDS011;65308;50.078;14.854;2024-01-11T05:25:48;16.95;;;7.53;;
76475;SDS011;65308;50.078;14.854;2024-01-11T05:28:15;17.33;;;7.50;;
76475;SDS011;65308;50.078;14.854;2024-01-11T05:30:41;18.13;;;8.18;;
76475;SDS011;65308;50.078;14.854;2024-01-11T05:33:09;19.58;;;7.97;;
76475;SDS011;65308;50.078;14.854;2024-01-11T05:35:36;17.02;;;6.85;;
76475;SDS011;65308;50.078;14.854;2024-01-11T05:38:03;18.67;;;7.07;;
76475;SDS011;65308;50.078;14.854;2024-01-11T05:40:29;23.13;;;8.93;;
76475;SDS011;65308;50.078;14.854;2024-01-11T05:42:56;19.63;;;8.93;;
76475;SDS011;65308;50.078;14.854;2024-01-11T05:45:23;15.75;;;7.85;;
76475;SDS011;65308;50.078;14.854;2024-01-11T05:47:49;17.02;;;7.88;;
76475;SDS011;65308;50.078;14.854;2024-01-11T05:50:17;22.27;;;8.60;;
76475;SDS011;65308;50.078;14.854;2024-01-11T05:52:44;18.92;;;8.43;;
76475;SDS011;65308;50.078;14.854;2024-01-11T05:55:10;24.33;;;9.27;;
76475;SDS011;65308;50.078;14.854;2024-01-11T05:57:37;19.20;;;8.18;;
76475;SDS011;65308;50.078;14.854;2024-01-11T06:00:04;27.15;;;9.63;;
76475;SDS011;65308;50.078;14.854;2024-01-11T06:02:31;26.52;;;9.75;;
76475;SDS011;65308;50.078;14.854;2024-01-11T06:04:58;26.42;;;10.48;;
76475;SDS011;65308;50.078;14.854;2024-01-11T06:07:26;30.15;;;10.50;;
76475;SDS011;65308;50.078;14.854;2024-01-11T06:12:19;25.45;;;9.70;;
76475;SDS011;65308;50.078;14.854;2024-01-11T06:14:46;16.60;;;8.15;;
76475;SDS011;65308;50.078;14.854;2024-01-11T06:17:13;21.38;;;8.07;;
76475;SDS011;65308;50.078;14.854;2024-01-11T06:19:40;24.75;;;9.20;;
76475;SDS011;65308;50.078;14.854;2024-01-11T06:22:07;17.00;;;7.65;;
76475;SDS011;65308;50.078;14.854;2024-01-11T06:24:35;25.63;;;9.32;;
76475;SDS011;65308;50.078;14.854;2024-01-11T06:27:01;22.23;;;7.75;;
76475;SDS011;65308;50.078;14.854;2024-01-11T06:29:37;17.10;;;7.47;;
76475;SDS011;65308;50.078;14.854;2024-01-11T06:32:05;22.25;;;8.13;;
76475;SDS011;65308;50.078;14.854;2024-01-11T06:34:34;28.60;;;9.85;;
76475;SDS011;65308;50.078;14.854;2024-01-11T06:37:01;22.80;;;8.80;;
76475;SDS011;65308;50.078;14.854;2024-01-11T06:39:28;23.52;;;8.40;;
76475;SDS011;65308;50.078;14.854;2024-01-11T06:41:57;25.63;;;10.13;;
76475;SDS011;65308;50.078;14.854;2024-01-11T06:44:24;22.65;;;8.70;;
76475;SDS011;65308;50.078;14.854;2024-01-11T06:46:50;28.13;;;9.82;;
76475;SDS011;65308;50.078;14.854;2024-01-11T06:49:17;25.73;;;9.95;;
76475;SDS011;65308;50.078;14.854;2024-01-11T06:51:44;22.50;;;9.65;;
76475;SDS011;65308;50.078;14.854;2024-01-11T06:54:10;24.92;;;10.10;;
76475;SDS011;65308;50.078;14.854;2024-01-11T06:56:37;17.85;;;7.70;;
76475;SDS011;65308;50.078;14.854;2024-01-11T06:59:05;21.08;;;10.13;;
76475;SDS011;65308;50.078;14.854;2024-01-11T07:01:32;20.23;;;8.90;;
76475;SDS011;65308;50.078;14.854;2024-01-11T07:03:59;20.60;;;9.65;;
76475;SDS011;65308;50.078;14.854;2024-01-11T07:06:25;24.50;;;9.15;;
76475;SDS011;65308;50.078;14.854;2024-01-11T07:08:52;18.98;;;9.35;;
76475;SDS011;65308;50.078;14.854;2024-01-11T07:11:19;22.90;;;9.23;;
76475;SDS011;65308;50.078;14.854;2024-01-11T07:13:46;25.00;;;11.52;;
76475;SDS011;65308;50.078;14.854;2024-01-11T07:16:14;27.70;;;10.65;;
76475;SDS011;65308;50.078;14.854;2024-01-11T07:18:41;34.83;;;11.70;;
76475;SDS011;65308;50.078;14.854;2024-01-11T07:21:08;34.42;;;11.95;;
76475;SDS011;65308;50.078;14.854;2024-01-11T07:23:36;30.95;;;11.05;;
76475;SDS011;65308;50.078;14.854;2024-01-11T07:28:38;24.10;;;10.65;;
76475;SDS011;65308;50.078;14.854;2024-01-11T07:31:10;30.83;;;12.80;;
76475;SDS011;65308;50.078;14.854;2024-01-11T07:33:38;31.92;;;14.02;;
76475;SDS011;65308;50.078;14.854;2024-01-11T07:36:05;31.52;;;13.05;;
76475;SDS011;65308;50.078;14.854;2024-01-11T07:38:32;28.20;;;12.70;;
76475;SDS011;65308;50.078;14.854;2024-01-11T07:40:59;36.75;;;14.85;;
76475;SDS011;65308;50.078;14.854;2024-01-11T07:43:26;35.20;;;15.80;;
76475;SDS011;65308;50.078;14.854;2024-01-11T07:45:53;34.38;;;14.27;;
76475;SDS011;65308;50.078;14.854;2024-01-11T07:48:21;46.47;;;18.70;;
76475;SDS011;65308;50.078;14.854;2024-01-11T07:50:49;36.95;;;16.52;;
76475;SDS011;65308;50.078;14.854;2024-01-11T07:53:16;34.10;;;15.15;;
76475;SDS011;65308;50.078;14.854;2024-01-11T07:55:43;38.05;;;15.18;;
76475;SDS011;65308;50.078;14.854;2024-01-11T07:58:12;35.28;;;14.15;;
76475;SDS011;65308;50.078;14.854;2024-01-11T08:00:40;38.40;;;16.20;;
76475;SDS011;65308;50.078;14.854;2024-01-11T08:03:07;32.45;;;16.58;;
76475;SDS011;65308;50.078;14.854;2024-01-11T08:05:34;49.55;;;16.77;;
76475;SDS011;65308;50.078;14.854;2024-01-11T08:08:03;34.47;;;16.05;;
76475;SDS011;65308;50.078;14.854;2024-01-11T08:10:32;37.10;;;16.98;;
76475;SDS011;65308;50.078;14.854;2024-01-11T08:12:59;40.05;;;18.20;;
76475;SDS011;65308;50.078;14.854;2024-01-11T08:15:27;36.80;;;17.95;;
76475;SDS011;65308;50.078;14.854;2024-01-11T08:17:53;39.15;;;18.67;;
76475;SDS011;65308;50.078;14.854;2024-01-11T08:20:20;37.83;;;18.60;;
76475;SDS011;65308;50.078;14.854;2024-01-11T08:22:47;34.72;;;18.30;;
76475;SDS011;65308;50.078;14.854;2024-01-11T08:25:15;35.03;;;18.45;;
76475;SDS011;65308;50.078;14.854;2024-01-11T08:27:42;34.45;;;17.83;;
76475;SDS011;65308;50.078;14.854;2024-01-11T08:30:09;37.03;;;19.55;;
76475;SDS011;65308;50.078;14.854;2024-01-11T08:32:37;37.10;;;19.38;;
76475;SDS011;65308;50.078;14.854;2024-01-11T08:35:07;44.17;;;22.15;;
76475;SDS011;65308;50.078;14.854;2024-01-11T08:37:35;42.30;;;21.85;;
76475;SDS011;65308;50.078;14.854;2024-01-11T08:40:02;42.72;;;22.73;;
76475;SDS011;65308;50.078;14.854;2024-01-11T08:42:32;42.17;;;21.92;;
76475;SDS011;65308;50.078;14.854;2024-01-11T08:44:59;41.35;;;22.17;;
76475;SDS011;65308;50.078;14.854;2024-01-11T08:47:31;53.05;;;24.75;;
76475;SDS011;65308;50.078;14.854;2024-01-11T08:49:58;44.13;;;22.35;;
76475;SDS011;65308;50.078;14.854;2024-01-11T08:52:25;38.65;;;20.55;;
76475;SDS011;65308;50.078;14.854;2024-01-11T08:54:52;34.55;;;20.45;;
76475;SDS011;65308;50.078;14.854;2024-01-11T08:57:19;43.85;;;21.73;;
76475;SDS011;65308;50.078;14.854;2024-01-11T08:59:47;40.03;;;20.40;;
76475;SDS011;65308;50.078;14.854;2024-01-11T09:02:13;38.70;;;19.75;;
76475;SDS011;65308;50.078;14.854;2024-01-11T09:04:40;36.65;;;19.13;;
76475;SDS011;65308;50.078;14.854;2024-01-11T09:07:07;36.10;;;19.55;;
76475;SDS011;65308;50.078;14.854;2024-01-11T09:09:33;37.53;;;18.08;;
76475;SDS011;65308;50.078;14.854;2024-01-11T09:12:00;31.50;;;16.77;;
76475;SDS011;65308;50.078;14.854;2024-01-11T09:14:27;35.08;;;18.77;;
76475;SDS011;65308;50.078;14.854;2024-01-11T09:16:55;36.92;;;18.10;;
76475;SDS011;65308;50.078;14.854;2024-01-11T09:19:22;35.92;;;19.55;;
76475;SDS011;65308;50.078;14.854;2024-01-11T09:21:49;39.33;;;17.90;;
76475;SDS011;65308;50.078;14.854;2024-01-11T09:24:16;35.85;;;18.00;;
76475;SDS011;65308;50.078;14.854;2024-01-11T09:26:42;36.38;;;17.80;;
76475;SDS011;65308;50.078;14.854;2024-01-11T09:29:09;45.58;;;19.17;;
76475;SDS011;65308;50.078;14.854;2024-01-11T09:31:36;37.25;;;19.27;;
76475;SDS011;65308;50.078;14.854;2024-01-11T09:34:04;33.97;;;17.75;;
76475;SDS011;65308;50.078;14.854;2024-01-11T09:38:58;32.72;;;15.80;;
76475;SDS011;65308;50.078;14.854;2024-01-11T09:41:24;34.90;;;16.30;;
76475;SDS011;65308;50.078;14.854;2024-01-11T09:43:52;36.65;;;17.73;;
76475;SDS011;65308;50.078;14.854;2024-01-11T09:46:22;37.08;;;16.95;;
76475;SDS011;65308;50.078;14.854;2024-01-11T09:48:50;36.30;;;16.98;;
76475;SDS011;65308;50.078;14.854;2024-01-11T09:51:20;35.20;;;16.08;;
76475;SDS011;65308;50.078;14.854;2024-01-11T09:53:47;38.25;;;17.02;;
76475;SDS011;65308;50.078;14.854;2024-01-11T09:56:17;35.50;;;16.33;;
76475;SDS011;65308;50.078;14.854;2024-01-11T09:58:44;33.88;;;16.30;;
76475;SDS011;65308;50.078;14.854;2024-01-11T10:01:15;43.10;;;17.92;;
76475;SDS011;65308;50.078;14.854;2024-01-11T10:03:43;35.08;;;16.80;;
76475;SDS011;65308;50.078;14.854;2024-01-11T10:06:11;39.03;;;17.48;;
76475;SDS011;65308;50.078;14.854;2024-01-11T10:08:39;35.38;;;16.38;;
76475;SDS011;65308;50.078;14.854;2024-01-11T10:11:07;38.53;;;17.65;;
76475;SDS011;65308;50.078;14.854;2024-01-11T10:13:35;37.78;;;16.85;;
76475;SDS011;65308;50.078;14.854;2024-01-11T10:16:08;36.53;;;16.75;;
76475;SDS011;65308;50.078;14.854;2024-01-11T10:18:38;33.42;;;14.88;;
76475;SDS011;65308;50.078;14.854;2024-01-11T10:21:05;37.10;;;15.57;;
76475;SDS011;65308;50.078;14.854;2024-01-11T10:23:32;37.85;;;16.73;;
76475;SDS011;65308;50.078;14.854;2024-01-11T10:26:01;35.75;;;17.17;;
76475;SDS011;65308;50.078;14.854;2024-01-11T10:28:28;79.40;;;20.05;;
76475;SDS011;65308;50.078;14.854;2024-01-11T10:30:54;32.88;;;16.38;;
76475;SDS011;65308;50.078;14.854;2024-01-11T10:33:21;35.53;;;17.83;;
76475;SDS011;65308;50.078;14.854;2024-01-11T10:35:49;33.38;;;17.02;;
76475;SDS011;65308;50.078;14.854;2024-01-11T10:38:16;33.80;;;17.13;;
76475;SDS011;65308;50.078;14.854;2024-01-11T10:40:43;35.25;;;17.05;;
76475;SDS011;65308;50.078;14.854;2024-01-11T10:43:11;34.20;;;15.88;;
76475;SDS011;65308;50.078;14.854;2024-01-11T10:45:41;33.40;;;15.88;;
76475;SDS011;65308;50.078;14.854;2024-01-11T10:48:13;34.13;;;16.83;;
76475;SDS011;65308;50.078;14.854;2024-01-11T10:50:41;35.92;;;16.08;;
76475;SDS011;65308;50.078;14.854;2024-01-11T10:53:12;40.80;;;16.95;;
76475;SDS011;65308;50.078;14.854;2024-01-11T10:55:43;33.03;;;15.85;;
76475;SDS011;65308;50.078;14.854;2024-01-11T10:58:12;34.50;;;15.65;;
76475;SDS011;65308;50.078;14.854;2024-01-11T11:00:40;33.70;;;16.83;;
76475;SDS011;65308;50.078;14.854;2024-01-11T11:03:06;31.38;;;15.05;;
76475;SDS011;65308;50.078;14.854;2024-01-11T11:08:01;31.40;;;14.80;;
76475;SDS011;65308;50.078;14.854;2024-01-11T11:10:31;35.03;;;15.63;;
76475;SDS011;65308;50.078;14.854;2024-01-11T11:12:58;28.70;;;14.38;;
76475;SDS011;65308;50.078;14.854;2024-01-11T11:15:27;30.60;;;15.85;;
76475;SDS011;65308;50.078;14.854;2024-01-11T11:17:55;29.52;;;15.95;;
76475;SDS011;65308;50.078;14.854;2024-01-11T11:20:22;30.02;;;15.02;;
76475;SDS011;65308;50.078;14.854;2024-01-11T11:22:56;30.15;;;15.32;;
76475;SDS011;65308;50.078;14.854;2024-01-11T11:25:29;28.83;;;15.52;;
76475;SDS011;65308;50.078;14.854;2024-01-11T11:27:57;30.80;;;15.65;;
76475;SDS011;65308;50.078;14.854;2024-01-11T11:30:24;28.55;;;14.88;;
76475;SDS011;65308;50.078;14.854;2024-01-11T11:32:52;33.05;;;14.85;;
76475;SDS011;65308;50.078;14.854;2024-01-11T11:35:22;32.28;;;16.08;;
76475;SDS011;65308;50.078;14.854;2024-01-11T11:37:51;29.15;;;14.43;;
76475;SDS011;65308;50.078;14.854;2024-01-11T11:40:20;30.63;;;14.55;;
76475;SDS011;65308;50.078;14.854;2024-01-11T11:42:47;29.30;;;13.88;;
76475;SDS011;65308;50.078;14.854;2024-01-11T11:45:16;24.80;;;13.38;;
76475;SDS011;65308;50.078;14.854;2024-01-11T11:47:52;29.08;;;13.48;;
76475;SDS011;65308;50.078;14.854;2024-01-11T11:52:53;24.42;;;11.75;;
76475;SDS011;65308;50.078;14.854;2024-01-11T11:55:20;25.75;;;12.18;;
76475;SDS011;65308;50.078;14.854;2024-01-11T11:57:48;27.02;;;13.30;;
76475;SDS011;65308;50.078;14.854;2024-01-11T12:02:43;25.67;;;11.90;;
76475;SDS011;65308;50.078;14.854;2024-01-11T12:05:11;29.13;;;12.35;;
76475;SDS011;65308;50.078;14.854;2024-01-11T12:10:04;25.45;;;13.05;;
76475;SDS011;65308;50.078;14.854;2024-01-11T12:12:32;27.83;;;13.07;;
76475;SDS011;65308;50.078;14.854;2024-01-11T12:15:00;27.83;;;13.80;;
76475;SDS011;65308;50.078;14.854;2024-01-11T12:17:28;29.23;;;13.20;;
76475;SDS011;65308;50.078;14.854;2024-01-11T12:19:55;25.27;;;12.77;;
76475;SDS011;65308;50.078;14.854;2024-01-11T12:22:23;25.25;;;12.70;;
76475;SDS011;65308;50.078;14.854;2024-01-11T12:24:49;27.05;;;12.80;;
76475;SDS011;65308;50.078;14.854;2024-01-11T12:27:16;27.55;;;11.88;;
76475;SDS011;65308;50.078;14.854;2024-01-11T12:29:43;28.33;;;12.30;;
76475;SDS011;65308;50.078;14.854;2024-01-11T12:32:09;25.92;;;12.50;;
76475;SDS011;65308;50.078;14.854;2024-01-11T12:34:37;24.83;;;11.88;;
76475;SDS011;65308;50.078;14.854;2024-01-11T12:37:05;27.98;;;13.13;;
76475;SDS011;65308;50.078;14.854;2024-01-11T12:39:33;24.42;;;12.52;;
76475;SDS011;65308;50.078;14.854;2024-01-11T12:42:00;25.25;;;13.85;;
76475;SDS011;65308;50.078;14.854;2024-01-11T12:44:26;28.88;;;12.85;;
76475;SDS011;65308;50.078;14.854;2024-01-11T12:46:53;25.10;;;12.45;;
76475;SDS011;65308;50.078;14.854;2024-01-11T12:49:21;26.38;;;12.23;;
76475;SDS011;65308;50.078;14.854;2024-01-11T12:51:49;29.80;;;13.77;;
76475;SDS011;65308;50.078;14.854;2024-01-11T12:54:16;28.10;;;12.93;;
76475;SDS011;65308;50.078;14.854;2024-01-11T12:56:45;27.67;;;12.05;;
76475;SDS011;65308;50.078;14.854;2024-01-11T13:01:41;23.90;;;12.30;;
76475;SDS011;65308;50.078;14.854;2024-01-11T13:04:08;30.90;;;13.25;;
76475;SDS011;65308;50.078;14.854;2024-01-11T13:06:35;28.90;;;14.15;;
76475;SDS011;65308;50.078;14.854;2024-01-11T13:09:02;27.67;;;13.13;;
76475;SDS011;65308;50.078;14.854;2024-01-11T13:11:29;30.02;;;13.93;;
76475;SDS011;65308;50.078;14.854;2024-01-11T13:13:57;29.38;;;13.75;;
76475;SDS011;65308;50.078;14.854;2024-01-11T13:16:26;31.20;;;13.52;;
76475;SDS011;65308;50.078;14.854;2024-01-11T13:18:53;29.45;;;13.65;;
76475;SDS011;65308;50.078;14.854;2024-01-11T13:21:19;24.65;;;12.45;;
76475;SDS011;65308;50.078;14.854;2024-01-11T13:23:46;26.42;;;13.75;;
76475;SDS011;65308;50.078;14.854;2024-01-11T13:26:13;28.70;;;14.95;;
76475;SDS011;65308;50.078;14.854;2024-01-11T13:28:40;28.38;;;13.93;;
76475;SDS011;65308;50.078;14.854;2024-01-11T13:31:08;28.25;;;13.15;;
76475;SDS011;65308;50.078;14.854;2024-01-11T13:33:36;37.97;;;14.57;;
76475;SDS011;65308;50.078;14.854;2024-01-11T13:36:04;28.33;;;14.15;;
76475;SDS011;65308;50.078;14.854;2024-01-11T13:38:32;31.35;;;14.73;;
76475;SDS011;65308;50.078;14.854;2024-01-11T13:40:59;31.70;;;14.80;;
76475;SDS011;65308;50.078;14.854;2024-01-11T13:43:26;33.58;;;14.63;;
76475;SDS011;65308;50.078;14.854;2024-01-11T13:45:53;33.00;;;15.70;;
76475;SDS011;65308;50.078;14.854;2024-01-11T13:48:22;32.88;;;15.07;;
76475;SDS011;65308;50.078;14.854;2024-01-11T13:50:48;33.80;;;15.48;;
76475;SDS011;65308;50.078;14.854;2024-01-11T13:53:15;31.70;;;16.00;;
76475;SDS011;65308;50.078;14.854;2024-01-11T13:55:41;32.42;;;15.43;;
76475;SDS011;65308;50.078;14.854;2024-01-11T13:58:09;33.60;;;15.10;;
76475;SDS011;65308;50.078;14.854;2024-01-11T14:00:37;36.83;;;16.67;;
76475;SDS011;65308;50.078;14.854;2024-01-11T14:03:04;34.38;;;15.18;;
76475;SDS011;65308;50.078;14.854;2024-01-11T14:05:32;32.13;;;15.50;;
76475;SDS011;65308;50.078;14.854;2024-01-11T14:07:59;27.98;;;15.02;;
76475;SDS011;65308;50.078;14.854;2024-01-11T14:10:26;30.92;;;14.50;;
76475;SDS011;65308;50.078;14.854;2024-01-11T14:12:53;32.60;;;15.07;;
76475;SDS011;65308;50.078;14.854;2024-01-11T14:15:20;30.25;;;12.82;;
76475;SDS011;65308;50.078;14.854;2024-01-11T14:17:47;29.73;;;14.65;;
76475;SDS011;65308;50.078;14.854;2024-01-11T14:20:14;30.42;;;14.60;;
76475;SDS011;65308;50.078;14.854;2024-01-11T14:22:43;35.17;;;14.95;;
76475;SDS011;65308;50.078;14.854;2024-01-11T14:25:12;33.75;;;15.35;;
76475;SDS011;65308;50.078;14.854;2024-01-11T14:27:39;31.05;;;15.85;;
76475;SDS011;65308;50.078;14.854;2024-01-11T14:30:06;39.42;;;16.40;;
76475;SDS011;65308;50.078;14.854;2024-01-11T14:32:34;36.33;;;15.48;;